Alzada, Montana
Current Conditions -  °F | °C
As of 11:15 PM on Tuesday 21 Oct 2014 (Local Time) from KW43 Reporting Station
Broken Clouds Broken Clouds  
Wind Chill: 61°   Ceiling: 12000
Heat Index: 61°   Visibility: 10mi
Dew Point: 36°   Wind: 3mph
Humidity: 39%   Direction: 320°NW
Pressure: 29.86"   Gusts: NA
Location:  45.03°N, 104.42°W
Report Text: KW43 220515Z AUTO 32003KT 10SM BKN120 16/02 A2986 RMK AO2
Loading
Personal Weather Stations






























Interactive Weather Map
Tropical Storm Tracking
New forecast layout! Learn more

10-Day Weather Forecast

Advertisements
Track Severe Weather on mobile